Hanks Station, Illinois
Current Conditions -  °F | °C
As of 12:35 AM on Wednesday 28 Jan 2015 (Local Time) from KPPQ Reporting Station
Haze Haze  
Wind Chill: 28°   Ceiling: Unl
Heat Index: 28°   Visibility: 4mi
Dew Point: 27°   Wind: 3mph
Humidity: 93%   Direction: 120°ESE
Pressure: 30.25"   Gusts: NA
Location:  39.403°N, 90.4171°W
Report Text: KPPQ 280635Z AUTO 12003KT 4SM BR CLR M02/M03 A3025 RMK AO2 T10201030
Loading
Personal Weather Stations






























Interactive Weather Map New forecast layout! Learn more

10-Day Weather Forecast

Advertisements
Track Severe Weather on mobile